Terminal Aerodrome Forecast
Issued by NWS Charleston, WV

Current Version | Previous Version | Text Only | Print | Product List | Glossary Off
Versions: 1 2 3 4 5 6 7 8 9 10 11 12 13 14 15 16 17 18 19 20 21 22 23 24 25 26 27 28 29 30 31 32

000
FTUS41 KRLX 190252 AAA
TAFCRW
TAF AMD
KCRW 190252Z 1903/1924 34005KT P6SM FEW070
     FM190400 24012G27KT 4SM -SHRA FEW001 OVC050
     FM190700 26013G27KT P6SM BKN030
     FM191700 29009G20KT P6SM BKN020=

USA.gov is the U.S. government's official web portal to all federal, state and local government web resources and services.